Accueil
METAR-TAF:

METAR-TAF

Aéroports :

Aéroport de Barcelone-El Prat

Barcelone, Espagne

latitude: 41-17N, longitude: 002-04E, altitude: 4 m

Observation

Le bulletin a été fait il y a 37 minutes, à 01:30 UTC
Vent 11 kt de nord/nord-ouest
Température 9°C
Humidité 61%
Pression 1027 hPa
Visibilité 10 km ou plus
pas de nuages en-dessous de 1500 mètres et pas de cumulonimbus.

METAR: LEBL 220130Z 33011KT CAVOK 09/02 Q1027 NOSIG

Heure: 03:07 (02:07 UTC)

Prévision

Le bulletin a été fait il y a 3 heures et 7 minutes, à 23:00 UTC
Prévision valable du 22 à 00 UTC au 22 à 24 UTC
Vent 8 kt de nord
Visibilité 10 km ou plus
Quelques nuages à une hauteur de 3000 ft
Evoluant progressivement
du 22 à 08 UTC au 22 à 10 UTC
Vent 15 kt de est/nord-est
Evoluant progressivement
du 22 à 20 UTC au 22 à 22 UTC
Vent 7 kt de nord

TAF: LEBL 212300Z 2200/2224 35008KT 9999 FEW030 TX19/2212Z TN10/2206Z BECMG 2208/2210 07015KT BECMG 2220/2222 35007KT

Observations et prévisions météorologiques de plus de 4000 aéroports (messages METAR et TAF).

Les stations disponibles sont représentées par des disques jaunes et rouges sur la carte.

Passer la souris dessus pour voir le nom de la station.

Cliquer dessus pour voir les observations et prévisions météorologiques.

Pour changer de carte: cliquez sur les boutons verts avec une croix noire pour zoomer, sur le bouton vert avec un tiret pour effectuer un zoom arrière, ou sur les flèches vertes pour les cartes adjacentes.


METAR-TAF: